sensor_id;sensor_type;location;lat;lon;timestamp;temperature;humidity
76168;DHT22;64927;48.214;16.378;2022-12-13T00:01:53;0.70;60.40
76168;DHT22;64927;48.214;16.378;2022-12-13T00:04:20;0.70;60.30
76168;DHT22;64927;48.214;16.378;2022-12-13T00:06:49;0.60;61.30
76168;DHT22;64927;48.214;16.378;2022-12-13T00:09:17;0.70;60.40
76168;DHT22;64927;48.214;16.378;2022-12-13T00:11:43;0.60;60.40
76168;DHT22;64927;48.214;16.378;2022-12-13T00:14:10;0.60;59.70
76168;DHT22;64927;48.214;16.378;2022-12-13T00:16:38;0.50;60.40
76168;DHT22;64927;48.214;16.378;2022-12-13T00:19:04;0.50;60.90
76168;DHT22;64927;48.214;16.378;2022-12-13T00:21:31;0.50;60.90
76168;DHT22;64927;48.214;16.378;2022-12-13T00:23:58;0.60;60.70
76168;DHT22;64927;48.214;16.378;2022-12-13T00:26:27;0.60;60.40
76168;DHT22;64927;48.214;16.378;2022-12-13T00:28:53;0.50;59.90
76168;DHT22;64927;48.214;16.378;2022-12-13T00:31:22;0.40;60.70
76168;DHT22;64927;48.214;16.378;2022-12-13T00:33:53;0.40;60.60
76168;DHT22;64927;48.214;16.378;2022-12-13T00:36:19;0.40;60.40
76168;DHT22;64927;48.214;16.378;2022-12-13T00:38:44;0.40;60.70
76168;DHT22;64927;48.214;16.378;2022-12-13T00:41:15;0.40;60.60
76168;DHT22;64927;48.214;16.378;2022-12-13T00:43:41;0.40;60.70
76168;DHT22;64927;48.214;16.378;2022-12-13T00:46:13;0.40;60.70
76168;DHT22;64927;48.214;16.378;2022-12-13T00:48:39;0.40;60.60
76168;DHT22;64927;48.214;16.378;2022-12-13T00:51:08;0.40;60.70
76168;DHT22;64927;48.214;16.378;2022-12-13T00:53:35;0.40;60.60
76168;DHT22;64927;48.214;16.378;2022-12-13T00:56:03;0.40;61.00
76168;DHT22;64927;48.214;16.378;2022-12-13T00:58:29;0.40;60.40
76168;DHT22;64927;48.214;16.378;2022-12-13T01:01:06;0.40;60.50
76168;DHT22;64927;48.214;16.378;2022-12-13T01:03:33;0.50;60.70
76168;DHT22;64927;48.214;16.378;2022-12-13T01:06:06;0.40;60.70
76168;DHT22;64927;48.214;16.378;2022-12-13T01:08:32;0.50;61.00
76168;DHT22;64927;48.214;16.378;2022-12-13T01:11:00;0.40;61.00
76168;DHT22;64927;48.214;16.378;2022-12-13T01:13:29;0.40;60.60
76168;DHT22;64927;48.214;16.378;2022-12-13T01:15:57;0.40;60.60
76168;DHT22;64927;48.214;16.378;2022-12-13T01:18:23;0.40;60.90
76168;DHT22;64927;48.214;16.378;2022-12-13T01:20:59;0.50;61.00
76168;DHT22;64927;48.214;16.378;2022-12-13T01:23:25;0.50;60.90
76168;DHT22;64927;48.214;16.378;2022-12-13T01:25:51;0.40;60.70
76168;DHT22;64927;48.214;16.378;2022-12-13T01:28:17;0.30;60.40
76168;DHT22;64927;48.214;16.378;2022-12-13T01:30:42;0.30;61.00
76168;DHT22;64927;48.214;16.378;2022-12-13T01:33:08;0.30;60.90
76168;DHT22;64927;48.214;16.378;2022-12-13T01:35:34;0.20;61.10
76168;DHT22;64927;48.214;16.378;2022-12-13T01:38:00;0.20;61.60
76168;DHT22;64927;48.214;16.378;2022-12-13T01:40:26;0.30;61.40
76168;DHT22;64927;48.214;16.378;2022-12-13T01:42:54;0.30;61.40
76168;DHT22;64927;48.214;16.378;2022-12-13T01:45:25;0.30;60.90
76168;DHT22;64927;48.214;16.378;2022-12-13T01:47:58;0.30;61.40
76168;DHT22;64927;48.214;16.378;2022-12-13T01:50:35;0.20;61.10
76168;DHT22;64927;48.214;16.378;2022-12-13T01:53:06;0.30;61.50
76168;DHT22;64927;48.214;16.378;2022-12-13T01:55:34;0.20;61.10
76168;DHT22;64927;48.214;16.378;2022-12-13T01:58:02;0.20;61.50
76168;DHT22;64927;48.214;16.378;2022-12-13T02:00:32;0.10;61.60
76168;DHT22;64927;48.214;16.378;2022-12-13T02:03:00;0.20;61.60
76168;DHT22;64927;48.214;16.378;2022-12-13T02:05:36;0.10;61.50
76168;DHT22;64927;48.214;16.378;2022-12-13T02:08:07;0.10;61.60
76168;DHT22;64927;48.214;16.378;2022-12-13T02:10:35;0.20;61.30
76168;DHT22;64927;48.214;16.378;2022-12-13T02:13:00;0.10;61.30
76168;DHT22;64927;48.214;16.378;2022-12-13T02:15:33;0.00;61.40
76168;DHT22;64927;48.214;16.378;2022-12-13T02:18:13;0.00;61.90
76168;DHT22;64927;48.214;16.378;2022-12-13T02:32:07;0.00;61.40
76168;DHT22;64927;48.214;16.378;2022-12-13T02:40:13;0.10;62.00
76168;DHT22;64927;48.214;16.378;2022-12-13T02:42:51;0.10;61.20
76168;DHT22;64927;48.214;16.378;2022-12-13T02:45:46;0.00;61.10
76168;DHT22;64927;48.214;16.378;2022-12-13T02:48:18;0.00;61.70
76168;DHT22;64927;48.214;16.378;2022-12-13T02:50:47;0.00;61.60
76168;DHT22;64927;48.214;16.378;2022-12-13T02:53:14;0.00;61.80
76168;DHT22;64927;48.214;16.378;2022-12-13T02:55:40;-0.10;61.50
76168;DHT22;64927;48.214;16.378;2022-12-13T02:58:06;-0.10;61.80
76168;DHT22;64927;48.214;16.378;2022-12-13T03:06:37;-0.10;61.60
76168;DHT22;64927;48.214;16.378;2022-12-13T03:15:09;0.00;61.70
76168;DHT22;64927;48.214;16.378;2022-12-13T03:17:36;-0.30;62.00
76168;DHT22;64927;48.214;16.378;2022-12-13T03:20:08;-0.40;62.10
76168;DHT22;64927;48.214;16.378;2022-12-13T03:22:34;-0.40;62.50
76168;DHT22;64927;48.214;16.378;2022-12-13T03:25:00;-0.40;62.30
76168;DHT22;64927;48.214;16.378;2022-12-13T03:27:26;-0.40;62.30
76168;DHT22;64927;48.214;16.378;2022-12-13T03:29:51;-0.40;62.50
76168;DHT22;64927;48.214;16.378;2022-12-13T03:32:17;-0.40;62.50
76168;DHT22;64927;48.214;16.378;2022-12-13T03:34:42;-0.50;62.50
76168;DHT22;64927;48.214;16.378;2022-12-13T03:37:08;-0.50;62.60
76168;DHT22;64927;48.214;16.378;2022-12-13T03:39:34;-0.50;62.90
76168;DHT22;64927;48.214;16.378;2022-12-13T03:42:00;-0.40;63.10
76168;DHT22;64927;48.214;16.378;2022-12-13T03:44:26;-0.40;63.00
76168;DHT22;64927;48.214;16.378;2022-12-13T03:46:51;-0.50;63.20
76168;DHT22;64927;48.214;16.378;2022-12-13T03:49:22;-0.50;63.10
76168;DHT22;64927;48.214;16.378;2022-12-13T03:51:47;-0.50;63.20
76168;DHT22;64927;48.214;16.378;2022-12-13T03:54:13;-0.40;63.30
76168;DHT22;64927;48.214;16.378;2022-12-13T03:56:39;-0.40;63.00
76168;DHT22;64927;48.214;16.378;2022-12-13T03:59:04;-0.40;63.10
76168;DHT22;64927;48.214;16.378;2022-12-13T04:01:30;-0.40;63.40
76168;DHT22;64927;48.214;16.378;2022-12-13T04:04:00;-0.40;63.40
76168;DHT22;64927;48.214;16.378;2022-12-13T04:06:26;-0.40;63.30
76168;DHT22;64927;48.214;16.378;2022-12-13T04:08:53;-0.40;63.30
76168;DHT22;64927;48.214;16.378;2022-12-13T04:11:19;-0.30;63.40
76168;DHT22;64927;48.214;16.378;2022-12-13T04:14:03;-0.40;63.60
76168;DHT22;64927;48.214;16.378;2022-12-13T04:16:29;-0.30;63.40
76168;DHT22;64927;48.214;16.378;2022-12-13T04:18:54;-0.30;63.50
76168;DHT22;64927;48.214;16.378;2022-12-13T04:21:22;-0.40;63.60
76168;DHT22;64927;48.214;16.378;2022-12-13T04:23:48;-0.40;63.90
76168;DHT22;64927;48.214;16.378;2022-12-13T04:26:14;-0.40;63.80
76168;DHT22;64927;48.214;16.378;2022-12-13T04:28:41;-0.30;63.50
76168;DHT22;64927;48.214;16.378;2022-12-13T04:31:07;-0.20;63.50
76168;DHT22;64927;48.214;16.378;2022-12-13T04:33:33;-0.20;63.40
76168;DHT22;64927;48.214;16.378;2022-12-13T04:35:58;-0.10;63.00
76168;DHT22;64927;48.214;16.378;2022-12-13T04:38:24;-0.20;62.90
76168;DHT22;64927;48.214;16.378;2022-12-13T04:40:50;-0.40;62.70
76168;DHT22;64927;48.214;16.378;2022-12-13T04:43:15;-0.40;62.70
76168;DHT22;64927;48.214;16.378;2022-12-13T04:45:41;-0.30;63.00
76168;DHT22;64927;48.214;16.378;2022-12-13T04:48:07;-0.20;62.70
76168;DHT22;64927;48.214;16.378;2022-12-13T04:50:32;-0.20;62.00
76168;DHT22;64927;48.214;16.378;2022-12-13T04:52:58;-0.20;62.10
76168;DHT22;64927;48.214;16.378;2022-12-13T04:55:24;-0.30;61.70
76168;DHT22;64927;48.214;16.378;2022-12-13T04:57:50;-0.40;61.90
76168;DHT22;64927;48.214;16.378;2022-12-13T05:00:16;-0.40;62.40
76168;DHT22;64927;48.214;16.378;2022-12-13T05:02:41;-0.60;62.80
76168;DHT22;64927;48.214;16.378;2022-12-13T05:05:10;-0.70;63.20
76168;DHT22;64927;48.214;16.378;2022-12-13T05:07:39;-0.60;64.00
76168;DHT22;64927;48.214;16.378;2022-12-13T05:10:05;-0.80;63.50
76168;DHT22;64927;48.214;16.378;2022-12-13T05:12:30;-0.80;63.60
76168;DHT22;64927;48.214;16.378;2022-12-13T05:14:56;-0.90;63.70
76168;DHT22;64927;48.214;16.378;2022-12-13T05:17:21;-1.00;64.00
76168;DHT22;64927;48.214;16.378;2022-12-13T05:19:49;-1.00;64.10
76168;DHT22;64927;48.214;16.378;2022-12-13T05:22:15;-0.90;64.10
76168;DHT22;64927;48.214;16.378;2022-12-13T05:24:42;-0.80;63.90
76168;DHT22;64927;48.214;16.378;2022-12-13T05:27:09;-0.80;63.50
76168;DHT22;64927;48.214;16.378;2022-12-13T05:29:36;-0.80;63.40
76168;DHT22;64927;48.214;16.378;2022-12-13T05:32:02;-0.80;63.90
76168;DHT22;64927;48.214;16.378;2022-12-13T05:34:27;-0.80;63.80
76168;DHT22;64927;48.214;16.378;2022-12-13T05:36:53;-0.80;63.90
76168;DHT22;64927;48.214;16.378;2022-12-13T05:39:19;-0.80;64.30
76168;DHT22;64927;48.214;16.378;2022-12-13T05:41:44;-0.80;64.20
76168;DHT22;64927;48.214;16.378;2022-12-13T05:44:10;-0.70;64.00
76168;DHT22;64927;48.214;16.378;2022-12-13T05:46:37;-0.70;64.10
76168;DHT22;64927;48.214;16.378;2022-12-13T05:49:06;-0.70;64.20
76168;DHT22;64927;48.214;16.378;2022-12-13T05:51:33;-0.70;64.50
76168;DHT22;64927;48.214;16.378;2022-12-13T05:53:59;-0.70;64.70
76168;DHT22;64927;48.214;16.378;2022-12-13T05:56:25;-0.60;64.80
76168;DHT22;64927;48.214;16.378;2022-12-13T05:58:50;-0.50;64.80
76168;DHT22;64927;48.214;16.378;2022-12-13T06:01:18;-0.40;65.10
76168;DHT22;64927;48.214;16.378;2022-12-13T06:03:44;-0.40;65.20
76168;DHT22;64927;48.214;16.378;2022-12-13T06:06:11;-0.40;65.20
76168;DHT22;64927;48.214;16.378;2022-12-13T06:08:42;-0.30;65.40
76168;DHT22;64927;48.214;16.378;2022-12-13T06:11:07;-0.30;65.50
76168;DHT22;64927;48.214;16.378;2022-12-13T06:13:36;-0.30;65.40
76168;DHT22;64927;48.214;16.378;2022-12-13T06:16:03;-0.30;65.50
76168;DHT22;64927;48.214;16.378;2022-12-13T06:18:31;-0.30;65.30
76168;DHT22;64927;48.214;16.378;2022-12-13T06:20:59;-0.20;65.30
76168;DHT22;64927;48.214;16.378;2022-12-13T06:23:26;-0.30;65.40
76168;DHT22;64927;48.214;16.378;2022-12-13T06:25:51;-0.30;65.90
76168;DHT22;64927;48.214;16.378;2022-12-13T06:28:17;-0.30;66.20
76168;DHT22;64927;48.214;16.378;2022-12-13T06:30:43;-0.30;66.30
76168;DHT22;64927;48.214;16.378;2022-12-13T06:33:11;-0.20;66.50
76168;DHT22;64927;48.214;16.378;2022-12-13T06:35:37;-0.30;66.50
76168;DHT22;64927;48.214;16.378;2022-12-13T06:38:03;-0.40;66.40
76168;DHT22;64927;48.214;16.378;2022-12-13T06:40:29;-0.40;66.10
76168;DHT22;64927;48.214;16.378;2022-12-13T06:43:00;-0.40;66.50
76168;DHT22;64927;48.214;16.378;2022-12-13T06:45:26;-0.30;66.60
76168;DHT22;64927;48.214;16.378;2022-12-13T06:47:55;-0.30;66.10
76168;DHT22;64927;48.214;16.378;2022-12-13T06:50:20;-0.20;66.20
76168;DHT22;64927;48.214;16.378;2022-12-13T06:52:46;-0.30;65.80
76168;DHT22;64927;48.214;16.378;2022-12-13T06:55:14;-0.30;65.80
76168;DHT22;64927;48.214;16.378;2022-12-13T06:57:40;-0.30;65.90
76168;DHT22;64927;48.214;16.378;2022-12-13T07:00:06;-0.20;65.60
76168;DHT22;64927;48.214;16.378;2022-12-13T07:02:32;-0.20;65.30
76168;DHT22;64927;48.214;16.378;2022-12-13T07:05:03;-0.20;65.20
76168;DHT22;64927;48.214;16.378;2022-12-13T07:07:28;-0.10;65.30
76168;DHT22;64927;48.214;16.378;2022-12-13T07:09:55;-0.10;65.00
76168;DHT22;64927;48.214;16.378;2022-12-13T07:12:21;-0.10;65.10
76168;DHT22;64927;48.214;16.378;2022-12-13T07:14:47;-0.10;65.90
76168;DHT22;64927;48.214;16.378;2022-12-13T07:17:16;-0.10;65.20
76168;DHT22;64927;48.214;16.378;2022-12-13T07:19:41;0.00;65.00
76168;DHT22;64927;48.214;16.378;2022-12-13T07:22:07;0.00;64.90
76168;DHT22;64927;48.214;16.378;2022-12-13T07:24:33;0.10;64.60
76168;DHT22;64927;48.214;16.378;2022-12-13T07:26:59;0.00;64.00
76168;DHT22;64927;48.214;16.378;2022-12-13T07:29:25;0.00;65.00
76168;DHT22;64927;48.214;16.378;2022-12-13T07:31:50;-0.10;64.70
76168;DHT22;64927;48.214;16.378;2022-12-13T07:34:16;-0.10;63.40
76168;DHT22;64927;48.214;16.378;2022-12-13T07:36:42;-0.10;63.40
76168;DHT22;64927;48.214;16.378;2022-12-13T07:39:10;-0.20;63.40
76168;DHT22;64927;48.214;16.378;2022-12-13T07:41:35;-0.10;63.20
76168;DHT22;64927;48.214;16.378;2022-12-13T07:44:01;-0.10;62.90
76168;DHT22;64927;48.214;16.378;2022-12-13T07:46:26;-0.10;62.90
76168;DHT22;64927;48.214;16.378;2022-12-13T07:48:52;0.00;63.00
76168;DHT22;64927;48.214;16.378;2022-12-13T07:51:20;0.10;62.50
76168;DHT22;64927;48.214;16.378;2022-12-13T07:53:45;0.10;62.20
76168;DHT22;64927;48.214;16.378;2022-12-13T07:56:11;0.10;62.10
76168;DHT22;64927;48.214;16.378;2022-12-13T07:58:41;0.10;62.00
76168;DHT22;64927;48.214;16.378;2022-12-13T08:01:13;0.10;61.50
76168;DHT22;64927;48.214;16.378;2022-12-13T08:03:42;0.20;61.80
76168;DHT22;64927;48.214;16.378;2022-12-13T08:06:10;0.40;61.50
76168;DHT22;64927;48.214;16.378;2022-12-13T08:08:37;0.40;60.50
76168;DHT22;64927;48.214;16.378;2022-12-13T08:11:05;0.40;60.30
76168;DHT22;64927;48.214;16.378;2022-12-13T08:13:31;0.40;59.80
76168;DHT22;64927;48.214;16.378;2022-12-13T08:15:59;0.30;60.50
76168;DHT22;64927;48.214;16.378;2022-12-13T08:18:26;0.40;60.70
76168;DHT22;64927;48.214;16.378;2022-12-13T08:20:54;0.50;60.70
76168;DHT22;64927;48.214;16.378;2022-12-13T08:23:21;0.50;60.40
76168;DHT22;64927;48.214;16.378;2022-12-13T08:25:52;0.40;60.20
76168;DHT22;64927;48.214;16.378;2022-12-13T08:28:18;0.10;60.60
76168;DHT22;64927;48.214;16.378;2022-12-13T08:30:44;0.10;61.30
76168;DHT22;64927;48.214;16.378;2022-12-13T08:33:12;0.20;61.40
76168;DHT22;64927;48.214;16.378;2022-12-13T08:35:37;0.10;62.00
76168;DHT22;64927;48.214;16.378;2022-12-13T08:38:06;0.20;62.30
76168;DHT22;64927;48.214;16.378;2022-12-13T08:40:36;0.50;62.40
76168;DHT22;64927;48.214;16.378;2022-12-13T08:43:02;0.70;61.70
76168;DHT22;64927;48.214;16.378;2022-12-13T08:45:28;0.70;61.60
76168;DHT22;64927;48.214;16.378;2022-12-13T08:48:00;0.50;62.90
76168;DHT22;64927;48.214;16.378;2022-12-13T08:50:26;0.50;63.60
76168;DHT22;64927;48.214;16.378;2022-12-13T08:52:53;0.60;63.80
76168;DHT22;64927;48.214;16.378;2022-12-13T08:55:18;0.70;63.50
76168;DHT22;64927;48.214;16.378;2022-12-13T08:57:44;0.60;63.40
76168;DHT22;64927;48.214;16.378;2022-12-13T09:00:17;0.60;63.80
76168;DHT22;64927;48.214;16.378;2022-12-13T09:02:43;0.70;63.30
76168;DHT22;64927;48.214;16.378;2022-12-13T09:05:10;0.70;62.90
76168;DHT22;64927;48.214;16.378;2022-12-13T09:07:37;0.90;62.90
76168;DHT22;64927;48.214;16.378;2022-12-13T09:10:08;1.00;62.30
76168;DHT22;64927;48.214;16.378;2022-12-13T09:12:34;1.10;61.50
76168;DHT22;64927;48.214;16.378;2022-12-13T09:14:59;1.00;61.40
76168;DHT22;64927;48.214;16.378;2022-12-13T09:17:25;0.90;62.10
76168;DHT22;64927;48.214;16.378;2022-12-13T09:19:51;1.00;60.50
76168;DHT22;64927;48.214;16.378;2022-12-13T09:22:17;1.10;59.00
76168;DHT22;64927;48.214;16.378;2022-12-13T09:24:45;1.10;58.60
76168;DHT22;64927;48.214;16.378;2022-12-13T09:27:10;1.10;58.90
76168;DHT22;64927;48.214;16.378;2022-12-13T09:29:36;1.20;58.80
76168;DHT22;64927;48.214;16.378;2022-12-13T09:32:05;1.20;58.10
76168;DHT22;64927;48.214;16.378;2022-12-13T09:34:32;1.20;57.00
76168;DHT22;64927;48.214;16.378;2022-12-13T09:36:58;1.20;57.70
76168;DHT22;64927;48.214;16.378;2022-12-13T09:39:24;1.20;56.50
76168;DHT22;64927;48.214;16.378;2022-12-13T09:41:53;1.30;56.70
76168;DHT22;64927;48.214;16.378;2022-12-13T09:44:28;1.30;56.50
76168;DHT22;64927;48.214;16.378;2022-12-13T09:47:00;1.20;56.50
76168;DHT22;64927;48.214;16.378;2022-12-13T09:49:39;1.20;57.00
76168;DHT22;64927;48.214;16.378;2022-12-13T09:52:14;1.30;56.70
76168;DHT22;64927;48.214;16.378;2022-12-13T09:54:40;1.30;56.90
76168;DHT22;64927;48.214;16.378;2022-12-13T09:57:23;1.30;56.80
76168;DHT22;64927;48.214;16.378;2022-12-13T09:59:49;1.40;56.40
76168;DHT22;64927;48.214;16.378;2022-12-13T10:02:29;1.40;56.10
76168;DHT22;64927;48.214;16.378;2022-12-13T10:05:17;1.50;56.00
76168;DHT22;64927;48.214;16.378;2022-12-13T10:07:46;1.50;56.10
76168;DHT22;64927;48.214;16.378;2022-12-13T10:10:13;1.70;56.20
76168;DHT22;64927;48.214;16.378;2022-12-13T10:12:42;1.70;55.60
76168;DHT22;64927;48.214;16.378;2022-12-13T10:15:11;1.70;55.70
76168;DHT22;64927;48.214;16.378;2022-12-13T10:17:39;1.70;55.70
76168;DHT22;64927;48.214;16.378;2022-12-13T10:20:17;1.70;55.40
76168;DHT22;64927;48.214;16.378;2022-12-13T10:22:43;1.70;55.60
76168;DHT22;64927;48.214;16.378;2022-12-13T10:25:11;1.80;55.40
76168;DHT22;64927;48.214;16.378;2022-12-13T10:27:42;1.90;55.50
76168;DHT22;64927;48.214;16.378;2022-12-13T10:32:56;2.00;55.50
76168;DHT22;64927;48.214;16.378;2022-12-13T10:38:00;2.10;56.30
76168;DHT22;64927;48.214;16.378;2022-12-13T10:43:13;2.10;55.00
76168;DHT22;64927;48.214;16.378;2022-12-13T10:45:42;2.20;55.80
76168;DHT22;64927;48.214;16.378;2022-12-13T10:48:22;2.30;55.00
76168;DHT22;64927;48.214;16.378;2022-12-13T10:51:08;2.20;54.80
76168;DHT22;64927;48.214;16.378;2022-12-13T10:53:44;2.20;55.10
76168;DHT22;64927;48.214;16.378;2022-12-13T10:56:11;2.10;54.90
76168;DHT22;64927;48.214;16.378;2022-12-13T10:58:43;2.10;55.70
76168;DHT22;64927;48.214;16.378;2022-12-13T11:04:00;2.20;55.10
76168;DHT22;64927;48.214;16.378;2022-12-13T11:06:42;2.10;55.60
76168;DHT22;64927;48.214;16.378;2022-12-13T11:09:27;2.10;56.00
76168;DHT22;64927;48.214;16.378;2022-12-13T11:11:56;2.00;56.70
76168;DHT22;64927;48.214;16.378;2022-12-13T11:14:26;2.10;57.00
76168;DHT22;64927;48.214;16.378;2022-12-13T11:16:57;2.00;56.90
76168;DHT22;64927;48.214;16.378;2022-12-13T11:19:45;2.10;57.10
76168;DHT22;64927;48.214;16.378;2022-12-13T11:22:20;1.90;56.80
76168;DHT22;64927;48.214;16.378;2022-12-13T11:24:54;1.80;57.60
76168;DHT22;64927;48.214;16.378;2022-12-13T11:27:27;1.80;57.70
76168;DHT22;64927;48.214;16.378;2022-12-13T11:30:21;1.90;57.60
76168;DHT22;64927;48.214;16.378;2022-12-13T11:35:28;2.00;58.00
76168;DHT22;64927;48.214;16.378;2022-12-13T11:38:27;2.20;57.80
76168;DHT22;64927;48.214;16.378;2022-12-13T11:41:02;2.10;57.70
76168;DHT22;64927;48.214;16.378;2022-12-13T11:43:40;2.10;57.50
76168;DHT22;64927;48.214;16.378;2022-12-13T11:46:33;2.10;58.20
76168;DHT22;64927;48.214;16.378;2022-12-13T11:49:03;2.10;58.10
76168;DHT22;64927;48.214;16.378;2022-12-13T11:51:39;2.10;58.30
76168;DHT22;64927;48.214;16.378;2022-12-13T11:56:59;2.20;58.50
76168;DHT22;64927;48.214;16.378;2022-12-13T11:59:50;2.30;58.70
76168;DHT22;64927;48.214;16.378;2022-12-13T12:02:33;2.40;57.30
76168;DHT22;64927;48.214;16.378;2022-12-13T12:05:05;2.40;57.90
76168;DHT22;64927;48.214;16.378;2022-12-13T12:07:34;2.50;57.20
76168;DHT22;64927;48.214;16.378;2022-12-13T12:12:48;2.50;53.40
76168;DHT22;64927;48.214;16.378;2022-12-13T12:15:24;2.60;52.70
76168;DHT22;64927;48.214;16.378;2022-12-13T12:17:50;2.60;52.80
76168;DHT22;64927;48.214;16.378;2022-12-13T12:20:26;2.60;53.40
76168;DHT22;64927;48.214;16.378;2022-12-13T12:26:15;2.70;52.80
76168;DHT22;64927;48.214;16.378;2022-12-13T12:31:29;2.80;52.30
76168;DHT22;64927;48.214;16.378;2022-12-13T12:34:16;2.70;52.40
76168;DHT22;64927;48.214;16.378;2022-12-13T12:43:01;2.70;52.80
76168;DHT22;64927;48.214;16.378;2022-12-13T12:48:49;2.60;53.20
76168;DHT22;64927;48.214;16.378;2022-12-13T12:54:20;2.50;53.40
76168;DHT22;64927;48.214;16.378;2022-12-13T12:57:07;2.60;53.80
76168;DHT22;64927;48.214;16.378;2022-12-13T13:02:46;2.60;52.90
76168;DHT22;64927;48.214;16.378;2022-12-13T13:05:26;2.60;53.00
76168;DHT22;64927;48.214;16.378;2022-12-13T13:08:17;2.60;53.40
76168;DHT22;64927;48.214;16.378;2022-12-13T13:10:44;2.70;53.00
76168;DHT22;64927;48.214;16.378;2022-12-13T13:16:39;2.60;52.70
76168;DHT22;64927;48.214;16.378;2022-12-13T13:21:59;2.60;53.80
76168;DHT22;64927;48.214;16.378;2022-12-13T13:24:29;2.70;52.80
76168;DHT22;64927;48.214;16.378;2022-12-13T13:29:38;2.60;53.10
76168;DHT22;64927;48.214;16.378;2022-12-13T13:34:39;2.60;52.60
76168;DHT22;64927;48.214;16.378;2022-12-13T13:43:05;2.60;52.60
76168;DHT22;64927;48.214;16.378;2022-12-13T13:51:51;2.60;53.10
76168;DHT22;64927;48.214;16.378;2022-12-13T14:08:59;2.40;53.50
76168;DHT22;64927;48.214;16.378;2022-12-13T14:21:02;2.40;54.20
76168;DHT22;64927;48.214;16.378;2022-12-13T14:33:52;2.30;53.90
76168;DHT22;64927;48.214;16.378;2022-12-13T14:36:35;2.30;54.30
76168;DHT22;64927;48.214;16.378;2022-12-13T14:39:14;2.40;54.50
76168;DHT22;64927;48.214;16.378;2022-12-13T14:41:49;2.40;54.20
76168;DHT22;64927;48.214;16.378;2022-12-13T14:44:20;2.30;54.30
76168;DHT22;64927;48.214;16.378;2022-12-13T14:46:57;2.30;54.30
76168;DHT22;64927;48.214;16.378;2022-12-13T14:49:25;2.30;54.50
76168;DHT22;64927;48.214;16.378;2022-12-13T14:51:56;2.20;54.60
76168;DHT22;64927;48.214;16.378;2022-12-13T14:54:43;2.20;54.50
76168;DHT22;64927;48.214;16.378;2022-12-13T14:57:16;2.30;54.80
76168;DHT22;64927;48.214;16.378;2022-12-13T14:59:47;2.30;54.70
76168;DHT22;64927;48.214;16.378;2022-12-13T15:02:18;2.30;55.00
76168;DHT22;64927;48.214;16.378;2022-12-13T15:04:46;2.20;54.80
76168;DHT22;64927;48.214;16.378;2022-12-13T15:10:20;2.20;55.20
76168;DHT22;64927;48.214;16.378;2022-12-13T15:12:47;2.20;55.20
76168;DHT22;64927;48.214;16.378;2022-12-13T15:15:29;2.20;55.60
76168;DHT22;64927;48.214;16.378;2022-12-13T15:20:43;2.10;55.70
76168;DHT22;64927;48.214;16.378;2022-12-13T15:25:58;2.10;56.40
76168;DHT22;64927;48.214;16.378;2022-12-13T15:28:33;2.10;56.70
76168;DHT22;64927;48.214;16.378;2022-12-13T15:31:03;2.10;56.80
76168;DHT22;64927;48.214;16.378;2022-12-13T15:33:30;2.10;57.10
76168;DHT22;64927;48.214;16.378;2022-12-13T15:38:45;2.10;57.40
76168;DHT22;64927;48.214;16.378;2022-12-13T15:41:17;2.00;57.90
76168;DHT22;64927;48.214;16.378;2022-12-13T15:43:46;2.00;58.00
76168;DHT22;64927;48.214;16.378;2022-12-13T15:46:13;2.00;58.20
76168;DHT22;64927;48.214;16.378;2022-12-13T15:48:41;2.10;58.20
76168;DHT22;64927;48.214;16.378;2022-12-13T15:51:15;2.00;58.30
76168;DHT22;64927;48.214;16.378;2022-12-13T15:54:05;2.00;58.90
76168;DHT22;64927;48.214;16.378;2022-12-13T15:58:57;1.80;59.60
76168;DHT22;64927;48.214;16.378;2022-12-13T16:01:37;1.80;59.60
76168;DHT22;64927;48.214;16.378;2022-12-13T16:04:06;1.80;60.20
76168;DHT22;64927;48.214;16.378;2022-12-13T16:06:32;1.80;60.40
76168;DHT22;64927;48.214;16.378;2022-12-13T16:09:03;1.80;60.80
76168;DHT22;64927;48.214;16.378;2022-12-13T16:11:33;1.70;61.20
76168;DHT22;64927;48.214;16.378;2022-12-13T16:14:26;1.70;61.10
76168;DHT22;64927;48.214;16.378;2022-12-13T16:17:41;1.80;61.30
76168;DHT22;64927;48.214;16.378;2022-12-13T16:19:42;1.80;61.30
76168;DHT22;64927;48.214;16.378;2022-12-13T16:22:08;1.70;61.50
76168;DHT22;64927;48.214;16.378;2022-12-13T16:24:33;1.70;61.50
76168;DHT22;64927;48.214;16.378;2022-12-13T16:26:59;1.70;61.70
76168;DHT22;64927;48.214;16.378;2022-12-13T16:29:27;1.70;61.70
76168;DHT22;64927;48.214;16.378;2022-12-13T16:31:53;1.60;61.90
76168;DHT22;64927;48.214;16.378;2022-12-13T16:34:22;1.60;62.00
76168;DHT22;64927;48.214;16.378;2022-12-13T16:36:47;1.60;62.30
76168;DHT22;64927;48.214;16.378;2022-12-13T16:39:13;1.60;62.00
76168;DHT22;64927;48.214;16.378;2022-12-13T16:41:42;1.60;62.30
76168;DHT22;64927;48.214;16.378;2022-12-13T16:44:19;1.60;62.30
76168;DHT22;64927;48.214;16.378;2022-12-13T16:46:46;1.50;62.30
76168;DHT22;64927;48.214;16.378;2022-12-13T16:49:25;1.50;62.50
76168;DHT22;64927;48.214;16.378;2022-12-13T16:51:52;1.50;62.50
76168;DHT22;64927;48.214;16.378;2022-12-13T16:54:24;1.40;62.60
76168;DHT22;64927;48.214;16.378;2022-12-13T16:56:52;1.40;62.50
76168;DHT22;64927;48.214;16.378;2022-12-13T16:59:23;1.40;62.50
76168;DHT22;64927;48.214;16.378;2022-12-13T17:01:51;1.40;62.50
76168;DHT22;64927;48.214;16.378;2022-12-13T17:04:20;1.40;63.20
76168;DHT22;64927;48.214;16.378;2022-12-13T17:06:51;1.40;62.80
76168;DHT22;64927;48.214;16.378;2022-12-13T17:09:18;1.30;62.90
76168;DHT22;64927;48.214;16.378;2022-12-13T17:11:44;1.30;62.80
76168;DHT22;64927;48.214;16.378;2022-12-13T17:14:10;1.30;62.90
76168;DHT22;64927;48.214;16.378;2022-12-13T17:16:36;1.30;63.30
76168;DHT22;64927;48.214;16.378;2022-12-13T17:19:02;1.30;63.00
76168;DHT22;64927;48.214;16.378;2022-12-13T17:21:28;1.30;63.10
76168;DHT22;64927;48.214;16.378;2022-12-13T17:23:59;1.30;63.20
76168;DHT22;64927;48.214;16.378;2022-12-13T17:26:28;1.20;63.30
76168;DHT22;64927;48.214;16.378;2022-12-13T17:28:54;1.20;63.50
76168;DHT22;64927;48.214;16.378;2022-12-13T17:31:20;1.20;63.70
76168;DHT22;64927;48.214;16.378;2022-12-13T17:33:46;1.20;63.80
76168;DHT22;64927;48.214;16.378;2022-12-13T17:36:13;1.10;64.00
76168;DHT22;64927;48.214;16.378;2022-12-13T17:38:44;1.10;64.80
76168;DHT22;64927;48.214;16.378;2022-12-13T17:41:12;1.10;63.90
76168;DHT22;64927;48.214;16.378;2022-12-13T17:43:38;1.00;64.00
76168;DHT22;64927;48.214;16.378;2022-12-13T17:46:15;1.00;64.00
76168;DHT22;64927;48.214;16.378;2022-12-13T17:48:43;1.00;64.00
76168;DHT22;64927;48.214;16.378;2022-12-13T17:51:14;1.10;64.00
76168;DHT22;64927;48.214;16.378;2022-12-13T17:53:42;1.00;64.10
76168;DHT22;64927;48.214;16.378;2022-12-13T17:56:10;1.00;64.30
76168;DHT22;64927;48.214;16.378;2022-12-13T17:58:42;1.00;64.00
76168;DHT22;64927;48.214;16.378;2022-12-13T18:01:23;1.00;64.00
76168;DHT22;64927;48.214;16.378;2022-12-13T18:03:51;1.10;64.00